createdAt,value
2022-11-07T04:01:35.523Z,3.43
2022-11-07T04:04:03.947Z,3.70
2022-11-07T04:06:32.356Z,4.13
2022-11-07T04:09:00.679Z,4.90
2022-11-07T04:11:46.712Z,3.63
2022-11-07T04:14:32.392Z,4.20
2022-11-07T04:17:20.652Z,4.23
2022-11-07T04:19:50.155Z,3.90
2022-11-07T04:22:19.744Z,3.57
2022-11-07T04:24:48.184Z,3.80
2022-11-07T04:27:35.900Z,3.80
2022-11-07T04:30:19.970Z,3.87
2022-11-07T04:32:52.255Z,3.67
2022-11-07T04:35:22.050Z,3.63
2022-11-07T04:37:51.062Z,4.13
2022-11-07T04:40:19.988Z,4.30
2022-11-07T04:42:49.205Z,3.90
2022-11-07T04:45:18.586Z,3.80
2022-11-07T04:47:47.376Z,2.93
2022-11-07T04:50:20.490Z,2.90
2022-11-07T04:52:50.122Z,3.47
2022-11-07T04:55:24.309Z,3.13
2022-11-07T04:57:52.990Z,4.57
2022-11-07T05:00:22.454Z,3.10
2022-11-07T05:02:51.999Z,2.47
2022-11-07T05:05:21.831Z,3.13
2022-11-07T05:07:50.264Z,3.20
2022-11-07T05:10:23.218Z,3.20
2022-11-07T05:12:51.995Z,3.20
2022-11-07T05:15:20.538Z,3.43
2022-11-07T05:17:48.920Z,3.40
2022-11-07T05:20:33.207Z,3.10
2022-11-07T05:23:13.528Z,2.87
2022-11-07T05:25:43.910Z,3.00
2022-11-07T05:28:13.225Z,3.10
2022-11-07T05:30:43.306Z,3.07
2022-11-07T05:33:13.814Z,3.00
2022-11-07T05:35:44.261Z,2.80
2022-11-07T05:38:13.160Z,2.80
2022-11-07T05:40:42.936Z,2.47
2022-11-07T05:43:14.399Z,2.67
2022-11-07T05:45:43.140Z,2.63
2022-11-07T05:48:14.037Z,2.70
2022-11-07T05:50:43.755Z,2.73
2022-11-07T05:53:12.360Z,2.80
2022-11-07T05:55:40.935Z,2.40
2022-11-07T05:58:11.230Z,2.60
2022-11-07T06:00:39.734Z,2.40
2022-11-07T06:03:09.031Z,2.30
2022-11-07T06:05:39.433Z,2.93
2022-11-07T06:08:12.204Z,3.00
2022-11-07T06:10:42.380Z,2.47
2022-11-07T06:13:14.403Z,2.70
2022-11-07T06:15:44.510Z,2.40
2022-11-07T06:18:17.532Z,2.10
2022-11-07T06:20:46.110Z,2.47
2022-11-07T06:23:16.396Z,2.47
2022-11-07T06:25:45.080Z,2.50
2022-11-07T06:28:15.287Z,2.20
2022-11-07T06:30:44.339Z,1.87
2022-11-07T06:33:15.884Z,2.23
2022-11-07T06:35:45.042Z,2.77
2022-11-07T06:38:16.256Z,2.43
2022-11-07T06:40:45.469Z,2.80
2022-11-07T06:43:16.445Z,2.57
2022-11-07T06:45:47.110Z,2.23
2022-11-07T06:48:15.764Z,2.30
2022-11-07T06:50:44.304Z,2.20
2022-11-07T06:53:15.626Z,2.27
2022-11-07T06:55:44.328Z,2.97
2022-11-07T06:58:12.840Z,2.60
2022-11-07T07:00:41.339Z,2.33
2022-11-07T07:03:11.163Z,2.63
2022-11-07T07:05:40.077Z,2.50
2022-11-07T07:08:09.527Z,2.30
2022-11-07T07:10:42.707Z,2.67
2022-11-07T07:13:11.719Z,2.67
2022-11-07T07:15:50.269Z,2.60
2022-11-07T07:18:20.197Z,2.10
2022-11-07T07:20:49.210Z,1.93
2022-11-07T07:23:18.290Z,2.47
2022-11-07T07:25:49.364Z,2.17
2022-11-07T07:28:17.867Z,2.93
2022-11-07T07:30:51.624Z,2.33
2022-11-07T07:33:20.671Z,2.40
2022-11-07T07:35:49.247Z,2.53
2022-11-07T07:38:17.554Z,1.90
2022-11-07T07:40:47.397Z,2.10
2022-11-07T07:43:16.176Z,2.33
2022-11-07T07:45:45.141Z,1.93
2022-11-07T07:48:13.603Z,2.30
2022-11-07T07:50:41.977Z,2.33
2022-11-07T07:53:10.471Z,2.20
2022-11-07T07:55:38.915Z,2.00
2022-11-07T07:58:08.592Z,2.20
2022-11-07T08:00:37.135Z,2.10
2022-11-07T08:03:07.811Z,2.77
2022-11-07T08:05:37.834Z,3.50
2022-11-07T08:08:08.634Z,2.47
2022-11-07T08:10:42.489Z,2.57
2022-11-07T08:13:13.080Z,2.10
2022-11-07T08:15:41.854Z,1.90
2022-11-07T08:18:10.241Z,1.93
2022-11-07T08:20:38.700Z,1.73
2022-11-07T08:23:14.820Z,2.53
2022-11-07T08:25:51.169Z,2.20
2022-11-07T08:28:22.556Z,1.93
2022-11-07T08:30:58.879Z,1.80
2022-11-07T08:33:27.658Z,2.37
2022-11-07T08:35:56.931Z,2.20
2022-11-07T08:38:25.595Z,2.03
2022-11-07T08:40:54.412Z,2.50
2022-11-07T08:43:24.296Z,1.83
2022-11-07T08:45:54.940Z,2.03
2022-11-07T08:48:24.574Z,2.63
2022-11-07T08:50:54.593Z,1.87
2022-11-07T08:53:23.560Z,2.30
2022-11-07T08:55:51.900Z,2.27
2022-11-07T08:58:24.683Z,2.43
2022-11-07T09:00:57.170Z,2.10
2022-11-07T09:06:14.553Z,2.40
2022-11-07T09:08:42.916Z,2.03
2022-11-07T09:11:11.569Z,1.50
2022-11-07T09:13:40.009Z,2.17
2022-11-07T09:16:10.793Z,2.40
2022-11-07T09:18:39.439Z,2.10
2022-11-07T09:21:08.017Z,1.80
2022-11-07T09:23:36.392Z,2.33
2022-11-07T09:26:05.096Z,2.03
2022-11-07T09:28:33.656Z,2.20
2022-11-07T09:31:04.861Z,2.70
2022-11-07T09:33:34.617Z,2.23
2022-11-07T09:36:05.168Z,2.00
2022-11-07T09:38:33.648Z,2.23
2022-11-07T09:41:08.764Z,2.30
2022-11-07T09:43:56.721Z,1.80
2022-11-07T09:46:37.776Z,2.67
2022-11-07T09:49:17.660Z,1.67
2022-11-07T09:51:51.130Z,2.37
2022-11-07T09:54:23.719Z,2.33
2022-11-07T09:56:52.909Z,2.13
2022-11-07T09:59:26.467Z,1.83
2022-11-07T10:01:55.003Z,1.60
2022-11-07T10:04:26.701Z,2.33
2022-11-07T10:07:01.660Z,1.67
2022-11-07T10:09:41.474Z,1.90
2022-11-07T10:12:29.380Z,1.97
2022-11-07T10:15:05.112Z,1.83
2022-11-07T10:17:45.274Z,1.80
2022-11-07T10:20:31.713Z,2.53
2022-11-07T10:23:19.035Z,2.17
2022-11-07T10:25:55.780Z,2.50
2022-11-07T10:28:26.894Z,2.03
2022-11-07T10:31:00.208Z,1.90
2022-11-07T10:33:39.198Z,2.13
2022-11-07T10:36:20.305Z,2.37
2022-11-07T10:38:48.646Z,2.13
2022-11-07T10:41:19.536Z,3.00
2022-11-07T10:43:53.020Z,2.30
2022-11-07T10:46:26.483Z,2.97
2022-11-07T10:48:57.514Z,1.90
2022-11-07T10:51:41.601Z,1.87
2022-11-07T10:54:22.338Z,2.10
2022-11-07T10:57:04.871Z,2.37
2022-11-07T10:59:37.028Z,2.93
2022-11-07T11:02:21.913Z,3.20
2022-11-07T11:04:52.299Z,2.60
2022-11-07T11:07:28.567Z,2.60
2022-11-07T11:09:58.837Z,2.57
2022-11-07T11:12:34.262Z,2.40
2022-11-07T11:15:11.682Z,1.90
2022-11-07T11:17:40.837Z,1.90
2022-11-07T11:20:31.975Z,1.87
2022-11-07T11:23:04.952Z,1.53
2022-11-07T11:25:33.491Z,2.10
2022-11-07T11:28:08.824Z,2.20
2022-11-07T11:30:38.434Z,2.17
2022-11-07T11:33:13.486Z,1.93
2022-11-07T11:35:46.579Z,2.67
2022-11-07T11:38:22.302Z,2.87
2022-11-07T11:41:01.569Z,2.70
2022-11-07T11:43:42.653Z,2.37
2022-11-07T11:46:16.055Z,2.77
2022-11-07T11:48:51.747Z,2.50
2022-11-07T11:51:37.960Z,1.70
2022-11-07T11:54:11.081Z,2.87
2022-11-07T11:56:53.148Z,2.20
2022-11-07T12:00:05.898Z,2.77
2022-11-07T12:03:08.211Z,2.20
2022-11-07T12:06:27.919Z,2.27
2022-11-07T12:09:25.215Z,2.40
2022-11-07T12:12:06.862Z,2.30
2022-11-07T12:15:24.091Z,1.97
2022-11-07T12:17:58.948Z,2.30
2022-11-07T12:20:31.646Z,2.00
2022-11-07T12:23:19.729Z,1.77
2022-11-07T12:25:56.748Z,1.90
2022-11-07T12:28:45.534Z,2.13
2022-11-07T12:31:36.338Z,2.73
2022-11-07T12:34:20.184Z,2.40
2022-11-07T12:37:15.258Z,2.63
2022-11-07T12:40:00.295Z,2.80
2022-11-07T12:42:47.787Z,2.97
2022-11-07T12:45:26.436Z,2.67
2022-11-07T12:48:16.019Z,3.40
2022-11-07T12:50:52.836Z,2.97
2022-11-07T12:53:34.592Z,3.70
2022-11-07T12:56:08.392Z,3.03
2022-11-07T12:58:39.929Z,3.50
